ZST weather

Stewart Airport
Stewart, British Columbia, Canada

Public forecast

Using degrees Celsius for public forecast. Weather courtesy of forecast.io.

METAR (pilot weather report)

Retrieved 2019/09/19 01:00 UTC (36 minutes ago):

CZST 190100Z 00000KT 15SM BKN090 13/09 A2998 RMK AC7 LAST STFD OBS/NEXT 191300Z/ SLP154

TAF (pilot weather forecast)

Forecast is more than 12 hours old.

Closest forecast is Ketchikan International Airport, 68.2 nm (126.3 km) WSW. Retrieved 2019/09/18 00:48 UTC (1 day ago):

TAF PAKT 182345Z 1900/1924 31006KT P6SM FEW060 BKN070 FM190300 14006KT P6SM -RA SCT025 BKN040 OVC050 FM190700 14010KT 4SM -RA BR SCT008 BKN012 OVC020 FM192100 13007KT P6SM VCSH SCT015 OVC030 AMD LTD TO CLD VIS AND WIND 1906/1915